createdAt,value
2023-05-24T00:01:58.814Z,92.27
2023-05-24T00:04:30.454Z,93.26
2023-05-24T00:07:03.329Z,93.59
2023-05-24T00:09:31.230Z,93.82
2023-05-24T00:11:59.359Z,94.68
2023-05-24T00:14:27.176Z,96.78
2023-05-24T00:16:55.093Z,96.56
2023-05-24T00:19:23.146Z,98.33
2023-05-24T00:21:51.245Z,98.02
2023-05-24T00:24:20.737Z,100.00
2023-05-24T00:26:48.560Z,99.19
2023-05-24T00:29:16.394Z,100.00
2023-05-24T00:31:44.252Z,100.00
2023-05-24T00:34:12.267Z,100.00
2023-05-24T00:36:40.136Z,99.67
2023-05-24T00:39:09.897Z,99.27
2023-05-24T00:41:39.251Z,99.14
2023-05-24T00:44:07.152Z,99.43
2023-05-24T00:46:35.945Z,99.39
2023-05-24T00:49:04.923Z,99.03
2023-05-24T00:51:33.943Z,99.93
2023-05-24T00:54:02.010Z,99.99
2023-05-24T00:56:30.031Z,99.55
2023-05-24T00:58:59.396Z,99.33
2023-05-24T01:01:31.158Z,99.58
2023-05-24T01:04:00.233Z,99.39
2023-05-24T01:06:29.060Z,99.45
2023-05-24T01:09:14.853Z,99.95
2023-05-24T01:11:59.373Z,99.70
2023-05-24T01:14:36.737Z,99.15
2023-05-24T01:17:09.497Z,99.13
2023-05-24T01:19:57.549Z,99.82
2023-05-24T01:22:39.578Z,100.00
2023-05-24T01:25:14.188Z,100.00
2023-05-24T01:27:44.617Z,99.84
2023-05-24T01:30:14.705Z,100.00
2023-05-24T01:32:43.239Z,100.00
2023-05-24T01:35:11.223Z,100.00
2023-05-24T01:37:39.031Z,100.00
2023-05-24T01:40:10.188Z,100.00
2023-05-24T01:42:45.921Z,100.00
2023-05-24T01:45:20.820Z,100.00
2023-05-24T01:47:59.346Z,100.00
2023-05-24T01:50:32.535Z,100.00
2023-05-24T01:53:04.987Z,100.00
2023-05-24T01:55:34.561Z,100.00
2023-05-24T01:58:05.625Z,100.00
2023-05-24T02:00:34.658Z,100.00
2023-05-24T02:03:03.378Z,100.00
2023-05-24T02:05:33.400Z,100.00
2023-05-24T02:08:06.849Z,100.00
2023-05-24T02:10:34.699Z,100.00
2023-05-24T02:13:03.941Z,100.00
2023-05-24T02:15:31.795Z,100.00
2023-05-24T02:18:01.457Z,100.00
2023-05-24T02:20:31.360Z,100.00
2023-05-24T02:23:00.660Z,100.00
2023-05-24T02:25:29.167Z,100.00
2023-05-24T02:27:57.062Z,100.00
2023-05-24T02:30:26.721Z,100.00
2023-05-24T02:32:54.687Z,100.00
2023-05-24T02:35:22.774Z,100.00
2023-05-24T02:37:50.569Z,100.00
2023-05-24T02:40:18.631Z,100.00
2023-05-24T02:42:46.469Z,100.00
2023-05-24T02:45:14.296Z,100.00
2023-05-24T02:47:43.738Z,100.00
2023-05-24T02:50:12.092Z,100.00
2023-05-24T02:52:39.967Z,100.00
2023-05-24T02:55:09.070Z,100.00
2023-05-24T02:57:37.881Z,100.00
2023-05-24T03:00:09.306Z,100.00
2023-05-24T03:02:38.830Z,100.00
2023-05-24T03:05:09.070Z,100.00
2023-05-24T03:07:36.986Z,100.00
2023-05-24T03:10:05.183Z,100.00
2023-05-24T03:12:33.081Z,100.00
2023-05-24T03:15:00.951Z,100.00
2023-05-24T03:17:28.983Z,100.00
2023-05-24T03:19:56.851Z,100.00
2023-05-24T03:22:26.208Z,100.00
2023-05-24T03:24:54.036Z,100.00
2023-05-24T03:27:21.890Z,100.00
2023-05-24T03:29:49.925Z,100.00
2023-05-24T03:32:19.947Z,100.00
2023-05-24T03:34:48.046Z,100.00
2023-05-24T03:37:16.120Z,100.00
2023-05-24T03:39:47.431Z,100.00
2023-05-24T03:42:32.446Z,100.00
2023-05-24T03:45:00.413Z,100.00
2023-05-24T03:47:28.386Z,100.00
2023-05-24T03:49:56.185Z,100.00
2023-05-24T03:52:24.581Z,100.00
2023-05-24T03:54:53.846Z,100.00
2023-05-24T03:57:22.036Z,100.00
2023-05-24T03:59:49.996Z,100.00
2023-05-24T04:02:17.896Z,100.00
2023-05-24T04:04:46.326Z,100.00
2023-05-24T04:07:15.557Z,100.00
2023-05-24T04:09:43.765Z,100.00
2023-05-24T04:12:13.716Z,100.00
2023-05-24T04:14:42.894Z,100.00
2023-05-24T04:17:10.890Z,100.00
2023-05-24T04:19:38.803Z,100.00
2023-05-24T04:22:06.625Z,100.00
2023-05-24T04:24:37.832Z,100.00
2023-05-24T04:27:06.145Z,100.00
2023-05-24T04:29:35.531Z,100.00
2023-05-24T04:32:03.452Z,100.00
2023-05-24T04:34:33.862Z,100.00
2023-05-24T04:37:02.084Z,100.00
2023-05-24T04:39:31.278Z,100.00
2023-05-24T04:42:00.647Z,100.00
2023-05-24T04:44:28.658Z,100.00
2023-05-24T04:46:58.283Z,100.00
2023-05-24T04:49:26.364Z,100.00
2023-05-24T04:51:55.280Z,99.34
2023-05-24T04:54:23.248Z,97.80
2023-05-24T04:56:51.555Z,98.03
2023-05-24T04:59:19.391Z,97.60
2023-05-24T05:01:47.334Z,95.04
2023-05-24T05:04:16.677Z,93.19
2023-05-24T05:06:44.801Z,92.45
2023-05-24T05:09:13.899Z,91.34
2023-05-24T05:11:42.044Z,90.47
2023-05-24T05:14:10.104Z,89.78
2023-05-24T05:16:38.364Z,89.33
2023-05-24T05:19:06.672Z,89.85
2023-05-24T05:21:36.747Z,91.11
2023-05-24T05:24:04.836Z,92.06
2023-05-24T05:26:32.864Z,93.32
2023-05-24T05:29:00.886Z,92.18
2023-05-24T05:31:28.782Z,92.54
2023-05-24T05:33:56.654Z,92.42
2023-05-24T05:36:24.518Z,92.92
2023-05-24T05:38:54.601Z,92.34
2023-05-24T05:41:22.558Z,92.31
2023-05-24T05:43:50.397Z,91.90
2023-05-24T05:46:21.037Z,92.45
2023-05-24T05:48:49.240Z,92.25
2023-05-24T05:51:17.173Z,91.01
2023-05-24T05:53:45.119Z,90.86
2023-05-24T05:56:14.326Z,90.30
2023-05-24T05:58:42.186Z,89.70
2023-05-24T06:01:09.985Z,90.08
2023-05-24T06:03:38.076Z,89.65
2023-05-24T06:06:06.248Z,87.42
2023-05-24T06:08:35.153Z,87.46
2023-05-24T06:11:03.829Z,87.44
2023-05-24T06:13:33.170Z,84.75
2023-05-24T06:16:01.269Z,84.82
2023-05-24T06:18:30.548Z,83.56
2023-05-24T06:20:58.547Z,83.29
2023-05-24T06:23:26.469Z,82.37
2023-05-24T06:25:54.661Z,81.70
2023-05-24T06:28:22.713Z,83.13
2023-05-24T06:30:51.989Z,80.98
2023-05-24T06:33:19.953Z,84.04
2023-05-24T06:35:47.855Z,84.40
2023-05-24T06:38:16.105Z,81.40
2023-05-24T06:40:44.188Z,83.80
2023-05-24T06:43:12.221Z,84.17
2023-05-24T06:45:41.934Z,83.67
2023-05-24T06:48:11.427Z,82.00
2023-05-24T06:50:42.331Z,80.71
2023-05-24T06:53:10.815Z,81.42
2023-05-24T06:55:38.650Z,79.44
2023-05-24T06:58:07.104Z,79.67
2023-05-24T07:00:35.135Z,81.25
2023-05-24T07:03:03.137Z,80.83
2023-05-24T07:05:32.445Z,81.96
2023-05-24T07:08:00.381Z,80.54
2023-05-24T07:10:28.283Z,80.74
2023-05-24T07:12:56.097Z,81.95
2023-05-24T07:15:24.209Z,80.81
2023-05-24T07:17:52.869Z,80.78
2023-05-24T07:20:20.897Z,80.65
2023-05-24T07:22:50.109Z,78.19
2023-05-24T07:25:18.006Z,78.59
2023-05-24T07:27:45.811Z,78.19
2023-05-24T07:30:27.754Z,79.43
2023-05-24T07:32:59.387Z,79.56
2023-05-24T07:35:28.629Z,79.78
2023-05-24T07:37:57.920Z,78.95
2023-05-24T07:40:26.810Z,78.91
2023-05-24T07:42:54.655Z,77.84
2023-05-24T07:45:23.359Z,77.95
2023-05-24T07:47:51.199Z,78.77
2023-05-24T07:50:19.796Z,78.64
2023-05-24T07:52:47.660Z,77.80
2023-05-24T07:55:16.900Z,78.71
2023-05-24T07:57:44.678Z,78.38
2023-05-24T08:00:14.648Z,80.85
2023-05-24T08:02:43.145Z,81.01
2023-05-24T08:05:12.956Z,77.72
2023-05-24T08:07:41.719Z,75.93
2023-05-24T08:10:12.736Z,79.94
2023-05-24T08:12:42.217Z,78.09
2023-05-24T08:15:10.876Z,78.96
2023-05-24T08:17:39.649Z,78.12
2023-05-24T08:20:09.706Z,74.74
2023-05-24T08:22:38.284Z,74.69
2023-05-24T08:25:07.425Z,71.39
2023-05-24T08:27:35.285Z,72.60
2023-05-24T08:30:04.995Z,70.49
2023-05-24T08:32:33.284Z,72.03
2023-05-24T08:35:14.827Z,71.92
2023-05-24T08:37:47.417Z,72.57
2023-05-24T08:40:15.361Z,69.15
2023-05-24T08:42:43.380Z,67.08
2023-05-24T08:45:14.538Z,70.19
2023-05-24T08:47:43.672Z,71.99
2023-05-24T08:50:11.990Z,74.37
2023-05-24T08:52:41.410Z,76.84
2023-05-24T08:55:10.614Z,79.82
2023-05-24T08:57:41.760Z,79.97
2023-05-24T09:00:12.748Z,81.71
2023-05-24T09:02:46.276Z,82.84
2023-05-24T09:05:16.886Z,85.54
2023-05-24T09:07:46.365Z,82.14
2023-05-24T09:10:14.251Z,81.17
2023-05-24T09:12:46.554Z,82.14
2023-05-24T09:15:14.422Z,82.66
2023-05-24T09:17:44.290Z,82.90
2023-05-24T09:20:13.977Z,84.88
2023-05-24T09:22:43.822Z,81.62
2023-05-24T09:25:14.662Z,82.29
2023-05-24T09:27:42.511Z,82.39
2023-05-24T09:30:12.942Z,81.02
2023-05-24T09:32:41.454Z,79.83
2023-05-24T09:35:11.312Z,77.61
2023-05-24T09:37:40.453Z,77.72
2023-05-24T09:40:18.558Z,76.83
2023-05-24T09:42:46.550Z,77.67
2023-05-24T09:45:14.447Z,76.04
2023-05-24T09:47:43.557Z,77.51
2023-05-24T09:50:15.896Z,77.33
2023-05-24T09:52:44.462Z,74.45
2023-05-24T09:55:13.680Z,72.17
2023-05-24T09:57:41.645Z,72.98
2023-05-24T10:00:17.445Z,73.22
2023-05-24T10:02:53.447Z,78.77
2023-05-24T10:05:24.500Z,82.28
2023-05-24T10:07:53.337Z,83.95
2023-05-24T10:10:21.421Z,84.79
2023-05-24T10:12:51.065Z,85.46
2023-05-24T10:15:19.059Z,86.25
2023-05-24T10:17:46.972Z,87.14
2023-05-24T10:20:15.466Z,88.85
2023-05-24T10:22:47.259Z,88.24
2023-05-24T10:25:21.852Z,89.01
2023-05-24T10:27:51.819Z,88.06
2023-05-24T10:30:27.949Z,87.78
2023-05-24T10:32:56.996Z,86.22
2023-05-24T10:35:26.889Z,85.59
2023-05-24T10:37:57.407Z,85.83
2023-05-24T10:40:26.660Z,87.06
2023-05-24T10:42:55.326Z,87.52
2023-05-24T10:45:35.655Z,87.35
2023-05-24T10:48:11.305Z,86.53
2023-05-24T10:50:39.466Z,87.95
2023-05-24T10:53:14.232Z,89.03
2023-05-24T10:55:54.250Z,89.36
2023-05-24T10:58:30.533Z,90.20
2023-05-24T11:00:58.521Z,90.92
2023-05-24T11:03:26.478Z,90.25
2023-05-24T11:05:56.801Z,90.35
2023-05-24T11:08:27.520Z,91.39
2023-05-24T11:11:23.103Z,90.94
2023-05-24T11:13:57.400Z,89.38
2023-05-24T11:16:37.215Z,90.24
2023-05-24T11:19:19.273Z,91.18
2023-05-24T11:21:48.636Z,90.53
2023-05-24T11:24:19.333Z,91.46
2023-05-24T11:26:47.636Z,91.63
2023-05-24T11:29:17.783Z,90.70
2023-05-24T11:31:50.725Z,90.32
2023-05-24T11:34:18.753Z,90.16
2023-05-24T11:36:47.216Z,90.03
2023-05-24T11:39:16.157Z,91.25
2023-05-24T11:41:45.909Z,90.54
2023-05-24T11:44:19.011Z,90.18
2023-05-24T11:46:48.103Z,89.72
2023-05-24T11:49:17.130Z,89.99
2023-05-24T11:51:45.408Z,89.89
2023-05-24T11:54:13.267Z,90.48
2023-05-24T11:56:41.118Z,89.96
2023-05-24T11:59:16.868Z,89.86
2023-05-24T12:01:45.431Z,87.75
2023-05-24T12:04:13.553Z,88.52
2023-05-24T12:06:43.632Z,89.06
2023-05-24T12:09:14.291Z,89.03
2023-05-24T12:11:43.485Z,89.42
2023-05-24T12:14:17.872Z,88.75
2023-05-24T12:16:47.234Z,90.41
2023-05-24T12:19:31.744Z,90.17
2023-05-24T12:22:02.227Z,89.07
2023-05-24T12:24:32.481Z,89.96
2023-05-24T12:27:02.896Z,89.12
2023-05-24T12:29:36.426Z,88.92
2023-05-24T12:32:05.192Z,89.50
2023-05-24T12:34:33.712Z,89.68
2023-05-24T12:37:01.688Z,90.74
2023-05-24T12:39:31.779Z,89.26
2023-05-24T12:42:01.767Z,88.71
2023-05-24T12:44:31.398Z,89.83
2023-05-24T12:47:02.462Z,90.56
2023-05-24T12:49:30.786Z,89.92
2023-05-24T12:51:58.697Z,89.86
2023-05-24T12:54:28.469Z,89.44
2023-05-24T12:56:59.728Z,91.46
2023-05-24T12:59:28.424Z,90.99
2023-05-24T13:01:56.891Z,87.31
2023-05-24T13:04:27.091Z,86.95
2023-05-24T13:06:55.499Z,87.62
2023-05-24T13:09:24.124Z,86.59
2023-05-24T13:11:52.712Z,86.12
2023-05-24T13:14:20.908Z,84.29
2023-05-24T13:16:49.115Z,84.83
2023-05-24T13:19:17.298Z,85.46
2023-05-24T13:21:46.720Z,86.42
2023-05-24T13:24:16.711Z,87.21
2023-05-24T13:26:44.693Z,88.52
2023-05-24T13:31:43.997Z,89.49
2023-05-24T13:34:12.210Z,89.24
2023-05-24T13:36:40.354Z,87.06
2023-05-24T13:39:16.126Z,87.59
2023-05-24T13:41:45.281Z,87.71
2023-05-24T13:44:13.854Z,86.49
2023-05-24T13:46:42.538Z,86.06
2023-05-24T13:49:11.210Z,86.42
2023-05-24T13:51:40.070Z,86.89
2023-05-24T13:54:09.535Z,87.50
2023-05-24T13:56:38.627Z,87.51
2023-05-24T13:59:07.649Z,86.73
2023-05-24T14:01:37.454Z,85.25
2023-05-24T14:04:06.482Z,86.04
2023-05-24T14:06:37.453Z,84.43
2023-05-24T14:09:07.026Z,83.88
2023-05-24T14:11:36.668Z,82.63
2023-05-24T14:14:35.895Z,82.16
2023-05-24T14:16:55.007Z,81.34
2023-05-24T14:19:23.050Z,78.75
2023-05-24T14:21:50.984Z,78.79
2023-05-24T14:24:18.866Z,79.37
2023-05-24T14:26:48.413Z,80.48
2023-05-24T14:29:16.318Z,81.29
2023-05-24T14:31:44.337Z,78.81
2023-05-24T14:34:12.785Z,77.80
2023-05-24T14:36:41.731Z,78.04
2023-05-24T14:39:09.594Z,80.56
2023-05-24T14:41:37.686Z,79.41
2023-05-24T14:44:06.951Z,80.91
2023-05-24T14:46:35.078Z,81.12
2023-05-24T14:49:03.568Z,81.89
2023-05-24T14:51:31.408Z,84.00
2023-05-24T14:53:59.550Z,87.65
2023-05-24T14:56:27.441Z,89.87
2023-05-24T14:58:55.413Z,87.21
2023-05-24T15:01:24.690Z,85.78
2023-05-24T15:03:52.564Z,87.03
2023-05-24T15:06:20.403Z,87.93
2023-05-24T15:08:48.409Z,88.69
2023-05-24T15:11:17.626Z,88.45
2023-05-24T15:13:45.471Z,87.88
2023-05-24T15:16:13.283Z,88.51
2023-05-24T15:18:42.609Z,87.71
2023-05-24T15:21:10.583Z,87.46
2023-05-24T15:23:39.671Z,85.10
2023-05-24T15:26:08.180Z,84.77
2023-05-24T15:28:36.083Z,84.05
2023-05-24T15:31:04.427Z,82.87
2023-05-24T15:33:32.673Z,82.99
2023-05-24T15:36:01.968Z,82.73
2023-05-24T15:38:29.773Z,79.99
2023-05-24T15:40:57.718Z,79.51
2023-05-24T15:43:25.526Z,80.38
2023-05-24T15:45:53.643Z,79.02
2023-05-24T15:48:22.628Z,79.95
2023-05-24T15:51:16.491Z,79.00
2023-05-24T15:53:39.790Z,80.09
2023-05-24T15:56:08.014Z,80.25
2023-05-24T15:58:35.940Z,78.78
2023-05-24T16:01:03.890Z,78.80
2023-05-24T16:03:31.932Z,79.45
2023-05-24T16:05:59.966Z,79.52
2023-05-24T16:08:29.030Z,78.49
2023-05-24T16:10:58.436Z,80.37
2023-05-24T16:13:26.394Z,80.30
2023-05-24T16:15:54.263Z,77.99
2023-05-24T16:18:23.598Z,77.87
2023-05-24T16:20:52.517Z,77.95
2023-05-24T16:23:22.821Z,79.21
2023-05-24T16:25:51.076Z,79.31
2023-05-24T16:28:23.981Z,79.66
2023-05-24T16:30:55.740Z,81.90
2023-05-24T16:33:24.249Z,81.95
2023-05-24T16:35:55.581Z,81.41
2023-05-24T16:38:24.016Z,81.71
2023-05-24T16:40:51.965Z,81.25
2023-05-24T16:43:21.512Z,80.32
2023-05-24T16:45:49.870Z,80.60
2023-05-24T16:48:18.268Z,80.69
2023-05-24T16:50:46.381Z,80.51
2023-05-24T16:53:14.161Z,80.71
2023-05-24T16:55:42.284Z,80.64
2023-05-24T16:58:10.250Z,79.51
2023-05-24T17:00:39.494Z,79.14
2023-05-24T17:03:07.963Z,78.55
2023-05-24T17:05:35.919Z,78.01
2023-05-24T17:08:03.775Z,77.91
2023-05-24T17:10:31.694Z,78.82
2023-05-24T17:12:59.802Z,78.39
2023-05-24T17:15:27.634Z,78.30
2023-05-24T17:17:57.521Z,77.68
2023-05-24T17:20:25.420Z,76.03
2023-05-24T17:22:55.405Z,76.07
2023-05-24T17:25:23.311Z,77.02
2023-05-24T17:27:51.451Z,77.34
2023-05-24T17:30:19.857Z,77.98
2023-05-24T17:32:47.693Z,78.36
2023-05-24T17:35:17.046Z,79.20
2023-05-24T17:37:44.924Z,79.82
2023-05-24T17:40:13.219Z,78.02
2023-05-24T17:42:42.331Z,79.17
2023-05-24T17:45:11.327Z,77.60
2023-05-24T17:47:39.236Z,77.71
2023-05-24T17:50:08.898Z,78.68
2023-05-24T17:52:38.205Z,79.22
2023-05-24T17:55:07.278Z,80.44
2023-05-24T17:57:35.278Z,81.76
2023-05-24T18:00:03.136Z,82.18
2023-05-24T18:02:30.981Z,82.13
2023-05-24T18:04:58.932Z,82.02
2023-05-24T18:07:28.385Z,82.09
2023-05-24T18:10:00.220Z,82.38
2023-05-24T18:12:28.568Z,82.58
2023-05-24T18:14:56.502Z,83.25
2023-05-24T18:17:24.541Z,83.13
2023-05-24T18:19:52.504Z,83.29
2023-05-24T18:22:21.085Z,83.73
2023-05-24T18:24:48.933Z,82.98
2023-05-24T18:27:18.096Z,83.63
2023-05-24T18:29:45.957Z,84.31
2023-05-24T18:32:13.792Z,84.69
2023-05-24T18:34:41.693Z,84.83
2023-05-24T18:37:09.535Z,84.80
2023-05-24T18:39:37.446Z,85.10
2023-05-24T18:42:05.915Z,85.88
2023-05-24T18:44:37.812Z,85.77
2023-05-24T18:47:06.101Z,86.81
2023-05-24T18:49:34.132Z,87.72
2023-05-24T18:52:03.764Z,87.98
2023-05-24T18:54:31.691Z,89.85
2023-05-24T18:57:02.338Z,90.64
2023-05-24T18:59:31.581Z,91.36
2023-05-24T19:02:01.240Z,91.42
2023-05-24T19:04:29.651Z,91.40
2023-05-24T19:06:57.639Z,91.02
2023-05-24T19:09:26.025Z,91.71
2023-05-24T19:11:53.854Z,90.44
2023-05-24T19:14:22.168Z,90.69
2023-05-24T19:16:50.094Z,88.88
2023-05-24T19:19:19.250Z,89.73
2023-05-24T19:21:48.075Z,87.92
2023-05-24T19:24:15.946Z,88.03
2023-05-24T19:26:43.800Z,88.19
2023-05-24T19:29:11.624Z,87.62
2023-05-24T19:31:39.466Z,87.96
2023-05-24T19:34:07.321Z,88.81
2023-05-24T19:36:37.122Z,89.55
2023-05-24T19:39:05.228Z,90.55
2023-05-24T19:41:33.152Z,91.35
2023-05-24T19:44:00.968Z,91.54
2023-05-24T19:46:29.291Z,92.41
2023-05-24T19:48:57.154Z,92.65
2023-05-24T19:51:25.012Z,93.28
2023-05-24T19:53:54.494Z,93.66
2023-05-24T19:56:23.507Z,94.61
2023-05-24T19:58:52.238Z,94.66
2023-05-24T20:01:20.165Z,94.94
2023-05-24T20:03:49.522Z,95.60
2023-05-24T20:06:17.924Z,97.24
2023-05-24T20:08:47.090Z,97.44
2023-05-24T20:11:16.295Z,97.21
2023-05-24T20:13:44.129Z,97.51
2023-05-24T20:16:12.064Z,97.59
2023-05-24T20:18:39.910Z,97.85
2023-05-24T20:21:07.850Z,97.71
2023-05-24T20:23:35.965Z,97.94
2023-05-24T20:26:04.007Z,98.45
2023-05-24T20:28:33.283Z,98.95
2023-05-24T20:31:01.237Z,99.28
2023-05-24T20:33:29.228Z,99.38
2023-05-24T20:35:57.075Z,99.53
2023-05-24T20:38:24.992Z,100.00
2023-05-24T20:40:52.848Z,100.00
2023-05-24T20:43:20.688Z,100.00
2023-05-24T20:45:49.954Z,100.00
2023-05-24T20:48:17.981Z,100.00
2023-05-24T20:50:45.849Z,100.00
2023-05-24T20:53:13.698Z,100.00
2023-05-24T20:55:41.733Z,100.00
2023-05-24T20:58:10.103Z,100.00
2023-05-24T21:00:39.854Z,100.00
2023-05-24T21:03:10.005Z,100.00
2023-05-24T21:05:40.014Z,100.00
2023-05-24T21:08:07.840Z,100.00
2023-05-24T21:10:37.930Z,100.00
2023-05-24T21:13:05.887Z,100.00
2023-05-24T21:15:33.732Z,100.00
2023-05-24T21:18:01.661Z,100.00
2023-05-24T21:20:30.959Z,100.00
2023-05-24T21:22:58.858Z,100.00
2023-05-24T21:25:26.737Z,100.00
2023-05-24T21:27:54.674Z,100.00
2023-05-24T21:30:22.590Z,100.00
2023-05-24T21:32:50.486Z,100.00
2023-05-24T21:35:18.283Z,100.00
2023-05-24T21:37:47.602Z,100.00
2023-05-24T21:40:15.488Z,100.00
2023-05-24T21:42:44.248Z,100.00
2023-05-24T21:45:12.746Z,100.00
2023-05-24T21:47:40.641Z,100.00
2023-05-24T21:50:11.316Z,100.00
2023-05-24T21:52:39.431Z,100.00
2023-05-24T21:55:10.164Z,100.00
2023-05-24T21:57:38.013Z,100.00
2023-05-24T22:00:06.532Z,100.00
2023-05-24T22:02:34.955Z,100.00
2023-05-24T22:05:05.246Z,100.00
2023-05-24T22:07:33.164Z,100.00
2023-05-24T22:10:00.969Z,100.00
2023-05-24T22:12:30.368Z,100.00
2023-05-24T22:14:58.214Z,100.00
2023-05-24T22:17:26.703Z,100.00
2023-05-24T22:19:54.667Z,100.00
2023-05-24T22:22:22.764Z,100.00
2023-05-24T22:24:51.056Z,100.00
2023-05-24T22:27:18.908Z,100.00
2023-05-24T22:29:48.500Z,100.00
2023-05-24T22:32:16.497Z,100.00
2023-05-24T22:34:44.356Z,100.00
2023-05-24T22:37:12.195Z,100.00
2023-05-24T22:39:40.392Z,100.00
2023-05-24T22:42:08.266Z,100.00
2023-05-24T22:44:36.080Z,100.00
2023-05-24T22:47:05.823Z,100.00
2023-05-24T22:49:34.055Z,100.00
2023-05-24T22:52:02.344Z,100.00
2023-05-24T22:54:30.217Z,100.00
2023-05-24T22:56:58.103Z,100.00
2023-05-24T22:59:25.993Z,100.00
2023-05-24T23:01:53.919Z,100.00
2023-05-24T23:04:23.288Z,100.00
2023-05-24T23:06:52.663Z,100.00
2023-05-24T23:09:34.057Z,100.00
2023-05-24T23:12:02.437Z,100.00
2023-05-24T23:14:31.408Z,100.00
2023-05-24T23:17:02.725Z,100.00
2023-05-24T23:19:32.660Z,100.00
2023-05-24T23:22:00.480Z,100.00
2023-05-24T23:24:28.352Z,100.00
2023-05-24T23:26:57.071Z,100.00
2023-05-24T23:29:24.935Z,100.00
2023-05-24T23:31:52.859Z,100.00
2023-05-24T23:34:20.729Z,100.00
2023-05-24T23:36:49.938Z,100.00
2023-05-24T23:39:18.163Z,100.00
2023-05-24T23:41:46.005Z,100.00
2023-05-24T23:44:13.841Z,100.00
2023-05-24T23:46:42.023Z,100.00
2023-05-24T23:49:10.000Z,100.00
2023-05-24T23:51:37.873Z,100.00
2023-05-24T23:54:07.303Z,100.00
2023-05-24T23:56:35.252Z,100.00
2023-05-24T23:59:03.141Z,100.00
